Time;durP1;ratioP1;P1;durP2;ratioP2;P2;SDS_P1;SDS_P2;PMS_P1;PMS_P2;Temp;Humidity;BMP_temperature;BMP_pressure;BME280_temperature;BME280_humidity;BME280_pressure;Samples;Min_cycle;Max_cycle;Signal;HPM_P1;HPM_P2
2022/07/04 00:00:35;;;;;;;7.55;4.40;;;;;;;13.76;100.00;101926.94;4987049;28;20042;-82
2022/07/04 00:03:05;;;;;;;6.80;4.45;;;;;;;13.71;100.00;101932.22;4972674;28;20311;-80
2022/07/04 00:05:33;;;;;;;10.50;4.20;;;;;;;13.68;100.00;101924.22;4956933;28;20058;-81
2022/07/04 00:08:03;;;;;;;7.68;4.00;;;;;;;13.63;100.00;101931.28;4980621;28;20813;-80
2022/07/04 00:10:32;;;;;;;5.95;3.88;;;;;;;13.62;100.00;101925.06;4988681;28;20536;-80
2022/07/04 00:13:00;;;;;;;5.28;3.40;;;;;;;13.60;100.00;101924.19;4968632;28;20327;-81
2022/07/04 00:15:29;;;;;;;6.93;3.60;;;;;;;13.60;100.00;101925.94;4976733;28;20071;-80
2022/07/04 00:17:58;;;;;;;5.55;3.90;;;;;;;13.60;100.00;101924.19;4980180;28;20046;-82
2022/07/04 00:20:26;;;;;;;6.30;3.85;;;;;;;13.59;100.00;101926.81;4969066;28;20051;-81
2022/07/04 00:22:57;;;;;;;6.07;3.75;;;;;;;13.58;100.00;101917.97;4987202;28;20062;-80
2022/07/04 00:25:25;;;;;;;10.35;3.58;;;;;;;13.56;100.00;101932.97;4988464;28;20399;-80
2022/07/04 00:27:54;;;;;;;8.02;3.67;;;;;;;13.56;100.00;101919.72;4963653;28;20050;-80
2022/07/04 00:30:22;;;;;;;6.10;4.30;;;;;;;13.57;100.00;101925.91;4957235;28;20038;-80
2022/07/04 00:32:51;;;;;;;7.82;4.10;;;;;;;13.53;100.00;101927.63;4971142;28;20533;-81
2022/07/04 00:35:20;;;;;;;8.75;4.18;;;;;;;13.50;100.00;101930.28;4978581;28;20035;-81
2022/07/04 00:37:48;;;;;;;7.03;4.20;;;;;;;13.50;100.00;101934.69;4994221;28;20051;-80
2022/07/04 00:40:19;;;;;;;6.57;4.35;;;;;;;13.47;100.00;101924.06;4995881;28;20054;-81
2022/07/04 00:42:47;;;;;;;7.57;4.68;;;;;;;13.44;100.00;101923.19;4951599;28;20045;-80
2022/07/04 00:45:20;;;;;;;6.40;4.65;;;;;;;13.44;100.00;101927.59;4971789;28;20369;-82
2022/07/04 00:47:48;;;;;;;13.90;4.78;;;;;;;13.43;100.00;101924.03;4986322;28;20484;-80
2022/07/04 00:50:17;;;;;;;7.68;4.45;;;;;;;13.43;100.00;101916.09;4964669;28;20053;-81
2022/07/04 00:52:45;;;;;;;6.80;4.15;;;;;;;13.43;100.00;101913.44;4993912;28;20043;-80
2022/07/04 00:55:16;;;;;;;7.35;4.57;;;;;;;13.42;100.00;101913.44;4996645;28;20051;-80
2022/07/04 00:57:45;;;;;;;7.90;4.35;;;;;;;13.40;100.00;101915.19;4982179;28;20047;-80
2022/07/04 01:00:14;;;;;;;7.55;4.50;;;;;;;13.36;100.00;101916.91;4958378;28;20054;-80
2022/07/04 01:02:42;;;;;;;5.70;4.80;;;;;;;13.35;100.00;101915.16;4985721;28;20030;-80
2022/07/04 01:05:13;;;;;;;9.73;4.53;;;;;;;13.37;100.00;101917.81;4997082;28;20058;-80
2022/07/04 01:07:42;;;;;;;;;;;;;;;13.35;100.00;101917.78;4964014;28;20054;-80
2022/07/04 01:10:11;;;;;;;5.85;4.57;;;;;;;13.33;100.00;101923.97;4985720;28;19925;-81
2022/07/04 01:12:41;;;;;;;8.70;4.40;;;;;;;13.30;100.00;101923.88;4996951;28;20376;-81
2022/07/04 01:15:10;;;;;;;5.90;4.72;;;;;;;13.26;100.00;101923.84;4944620;28;20033;-81
2022/07/04 01:17:39;;;;;;;8.23;4.45;;;;;;;13.25;100.00;101915.88;4978672;28;20388;-81
2022/07/04 01:20:13;;;;;;;7.80;4.50;;;;;;;13.23;100.00;101917.63;4981994;28;20065;-79
2022/07/04 01:22:41;;;;;;;5.93;4.30;;;;;;;13.22;100.00;101910.59;4955503;28;20030;-80
2022/07/04 01:25:10;;;;;;;5.35;4.53;;;;;;;13.21;100.00;101920.28;4975380;28;20063;-80
2022/07/04 01:27:38;;;;;;;6.65;5.03;;;;;;;13.20;100.00;101929.09;4991559;28;20061;-81
2022/07/04 01:30:08;;;;;;;5.60;4.35;;;;;;;13.17;100.00;101915.81;4936097;28;20563;-80
2022/07/04 01:32:38;;;;;;;8.38;4.32;;;;;;;13.17;100.00;101915.81;4947334;28;20058;-80
2022/07/04 01:35:07;;;;;;;7.87;4.70;;;;;;;13.18;100.00;101914.97;4991473;28;20243;-81
2022/07/04 01:37:34;;;;;;;5.95;4.47;;;;;;;13.15;100.00;101920.22;4972233;28;20053;-81
2022/07/04 01:40:05;;;;;;;;;;;;;;;13.10;100.00;101906.06;4972930;28;20253;-81
2022/07/04 01:42:34;;;;;;;10.45;5.15;;;;;;;13.09;100.00;101904.28;4996516;28;19922;-81
2022/07/04 01:45:02;;;;;;;6.43;4.60;;;;;;;13.07;100.00;101904.25;4986519;28;20041;-81
2022/07/04 01:47:31;;;;;;;4.15;3.72;;;;;;;13.08;100.00;101905.19;4940412;28;20053;-81
2022/07/04 01:50:00;;;;;;;5.45;4.95;;;;;;;13.09;100.00;101906.06;4984595;28;20069;-81
2022/07/04 01:52:30;;;;;;;6.47;4.82;;;;;;;13.10;100.00;101907.81;4995259;28;20053;-80
2022/07/04 01:55:01;;;;;;;6.82;4.47;;;;;;;13.11;100.00;101901.66;4981065;28;20168;-80
2022/07/04 01:57:29;;;;;;;5.60;4.40;;;;;;;13.11;100.00;101901.66;4983781;28;20061;-80
2022/07/04 02:02:45;;;;;;;15.70;5.40;;;;;;;13.10;100.00;101899.88;4978245;28;20038;-80
2022/07/04 02:05:15;;;;;;;9.38;4.82;;;;;;;13.09;100.00;101903.41;4988482;28;20061;-80
2022/07/04 02:07:44;;;;;;;7.00;4.63;;;;;;;13.06;100.00;101905.16;4970526;28;20034;-80
2022/07/04 02:10:12;;;;;;;7.25;4.90;;;;;;;13.05;100.00;101907.78;4986029;28;20050;-80
2022/07/04 02:15:38;;;;;;;5.15;4.55;;;;;;;13.01;100.00;101905.97;4987313;28;20039;-81
2022/07/04 02:18:10;;;;;;;8.98;4.55;;;;;;;13.00;100.00;101907.72;4935768;28;20699;-81
2022/07/04 02:20:38;;;;;;;5.45;4.40;;;;;;;12.99;100.00;101897.13;4998433;28;20046;-80
2022/07/04 02:23:07;;;;;;;4.78;4.22;;;;;;;12.97;100.00;101888.31;4986342;28;21892;-80
2022/07/04 02:25:35;;;;;;;7.97;4.60;;;;;;;12.94;100.00;101888.25;4995919;28;20046;-80
2022/07/04 02:28:06;;;;;;;;;;;;;;;12.91;100.00;101885.56;4999780;28;20160;-80
2022/07/04 02:30:34;;;;;;;5.70;4.57;;;;;;;12.88;100.00;101889.09;4996179;28;19922;-80
2022/07/04 02:33:03;;;;;;;7.60;4.85;;;;;;;12.86;100.00;101889.06;4985953;28;20069;-80
2022/07/04 02:35:31;;;;;;;6.43;4.38;;;;;;;12.84;100.00;101893.47;4975932;28;20391;-80
2022/07/04 02:37:59;;;;;;;5.22;4.72;;;;;;;12.83;100.00;101894.31;4975986;28;20046;-80
2022/07/04 02:40:32;;;;;;;10.48;4.85;;;;;;;12.83;100.00;101891.66;4975935;28;20038;-80
2022/07/04 02:43:02;;;;;;;7.75;4.60;;;;;;;12.83;100.00;101889.03;4961083;28;20035;-80
2022/07/04 02:45:31;;;;;;;4.78;4.30;;;;;;;12.82;100.00;101878.44;4991149;28;20054;-80
2022/07/04 02:48:00;;;;;;;6.57;4.38;;;;;;;12.80;100.00;101886.38;5018743;28;20256;-80
2022/07/04 02:50:28;;;;;;;8.27;4.85;;;;;;;12.79;100.00;101886.34;4950537;28;20047;-80
2022/07/04 02:52:58;;;;;;;5.38;4.85;;;;;;;12.78;100.00;101882.81;4985340;28;20073;-80
2022/07/04 02:55:26;;;;;;;9.45;4.57;;;;;;;12.76;100.00;101876.63;4967873;28;20038;-80
2022/07/04 02:57:55;;;;;;;7.57;4.85;;;;;;;12.74;100.00;101882.75;4980190;28;20241;-81
2022/07/04 03:00:23;;;;;;;8.68;5.22;;;;;;;12.72;100.00;101889.78;4955607;28;20054;-80
2022/07/04 03:02:53;;;;;;;8.52;5.30;;;;;;;12.71;100.00;101882.75;4985087;28;20693;-81
2022/07/04 03:05:22;;;;;;;5.78;5.00;;;;;;;12.70;100.00;101887.13;4987250;28;20423;-80
2022/07/04 03:07:50;;;;;;;6.65;4.53;;;;;;;12.67;100.00;101881.81;4952764;28;20046;-81
2022/07/04 03:10:22;;;;;;;5.93;4.25;;;;;;;12.66;100.00;101882.66;4997149;28;20045;-80
2022/07/04 03:12:50;;;;;;;10.55;5.05;;;;;;;12.64;100.00;101880.00;4963163;28;20049;-80
2022/07/04 03:15:19;;;;;;;13.90;5.28;;;;;;;12.64;100.00;101884.41;4969549;28;20038;-80
2022/07/04 03:17:47;;;;;;;7.65;4.80;;;;;;;12.64;100.00;101897.63;5001297;28;20392;-80
2022/07/04 03:20:16;;;;;;;5.38;4.85;;;;;;;12.63;100.00;101885.31;4988013;28;20047;-80
2022/07/04 03:22:44;;;;;;;6.40;5.35;;;;;;;12.63;100.00;101882.66;4950357;28;20054;-80
2022/07/04 03:25:12;;;;;;;9.15;5.25;;;;;;;12.62;100.00;101886.16;4988941;28;20061;-80
2022/07/04 03:27:41;;;;;;;10.88;5.10;;;;;;;12.62;100.00;101887.03;4942171;28;20046;-80
2022/07/04 03:30:10;;;;;;;9.40;4.68;;;;;;;12.62;100.00;101888.81;4979294;28;20392;-81
2022/07/04 03:32:38;;;;;;;12.73;6.22;;;;;;;12.61;100.00;101884.41;4969813;28;20046;-81
2022/07/04 03:35:07;;;;;;;7.93;4.75;;;;;;;12.59;100.00;101888.75;4980766;28;20665;-80
2022/07/04 03:37:36;;;;;;;9.55;5.22;;;;;;;12.59;100.00;101891.41;4954588;28;20373;-80
2022/07/04 03:40:05;;;;;;;8.07;5.13;;;;;;;12.60;100.00;101890.53;4986175;28;20747;-80
2022/07/04 03:42:33;;;;;;;7.75;5.53;;;;;;;12.60;100.00;101901.13;4993754;28;20112;-82
2022/07/04 03:45:03;;;;;;;10.65;5.70;;;;;;;12.60;100.00;101894.06;4992998;28;20038;-80
2022/07/04 03:47:32;;;;;;;5.68;5.18;;;;;;;12.60;100.00;101907.28;4989655;28;20046;-80
2022/07/04 03:50:00;;;;;;;6.60;5.47;;;;;;;12.61;100.00;101910.84;4985701;28;20171;-80
2022/07/04 03:52:29;;;;;;;5.00;4.50;;;;;;;12.63;100.00;101895.88;4987024;28;20069;-80
2022/07/04 03:54:58;;;;;;;6.63;5.53;;;;;;;12.66;100.00;101904.75;4919679;28;20066;-80
2022/07/04 03:57:26;;;;;;;6.00;5.18;;;;;;;12.67;100.00;101906.50;4982408;28;20049;-80
2022/07/04 03:59:57;;;;;;;15.93;5.63;;;;;;;12.70;100.00;101908.28;4960138;28;20053;-80
2022/07/04 04:02:25;;;;;;;8.63;5.00;;;;;;;12.75;100.00;101909.22;4988309;28;20053;-80
2022/07/04 04:07:43;;;;;;;6.10;5.15;;;;;;;13.02;100.00;101903.34;4996310;28;20050;-80
2022/07/04 04:10:13;;;;;;;7.45;5.15;;;;;;;13.15;100.00;101899.03;4979899;28;20399;-80
2022/07/04 04:12:41;;;;;;;10.15;5.53;;;;;;;13.49;100.00;101899.38;4994164;28;20042;-81
2022/07/04 04:15:10;;;;;;;12.07;4.85;;;;;;;14.20;100.00;101897.19;4981868;28;20239;-81
2022/07/04 04:17:38;;;;;;;5.25;4.07;;;;;;;14.90;100.00;101893.94;4980087;28;20518;-80
2022/07/04 04:20:08;;;;;;;6.78;4.35;;;;;;;15.71;100.00;101893.06;4969227;28;20243;-80
2022/07/04 04:22:37;;;;;;;5.82;4.35;;;;;;;16.51;100.00;101883.97;4987872;28;20065;-81
2022/07/04 04:25:06;;;;;;;6.30;4.10;;;;;;;17.24;100.00;101871.09;4985423;28;20608;-80
2022/07/04 04:27:34;;;;;;;6.38;3.67;;;;;;;17.93;100.00;101876.69;4988353;28;20061;-80
2022/07/04 04:30:03;;;;;;;5.63;3.60;;;;;;;18.61;100.00;101877.63;4994837;28;20264;-80
2022/07/04 04:32:32;;;;;;;6.18;3.15;;;;;;;19.21;100.00;101874.97;5014980;28;20057;-80
2022/07/04 04:35:00;;;;;;;3.67;3.00;;;;;;;19.75;100.00;101879.41;4992964;28;20046;-81
2022/07/04 04:37:29;;;;;;;3.67;3.05;;;;;;;20.24;100.00;101878.47;4987875;28;20047;-80
2022/07/04 04:39:57;;;;;;;6.35;3.30;;;;;;;20.71;100.00;101877.47;4950416;28;20038;-80
2022/07/04 04:42:26;;;;;;;5.65;3.00;;;;;;;21.10;100.00;101882.84;4986297;28;20488;-80
2022/07/04 04:44:55;;;;;;;6.45;3.10;;;;;;;21.45;100.00;101878.41;4992392;28;20255;-81
2022/07/04 04:47:23;;;;;;;3.70;2.88;;;;;;;21.77;100.00;101881.09;5001481;28;20042;-81
2022/07/04 04:49:52;;;;;;;3.28;2.88;;;;;;;22.08;100.00;101874.00;4988951;28;20101;-82
2022/07/04 04:52:20;;;;;;;5.03;3.35;;;;;;;22.38;97.97;101883.91;4996754;28;20053;-81
2022/07/04 04:54:49;;;;;;;5.10;2.53;;;;;;;22.57;95.97;101886.91;4985650;28;20038;-80
2022/07/04 04:57:18;;;;;;;8.27;2.83;;;;;;;22.75;94.22;101890.81;4991246;28;20057;-80
2022/07/04 04:59:46;;;;;;;5.93;2.30;;;;;;;22.86;93.20;101892.31;4983484;28;20035;-80
2022/07/04 05:02:20;;;;;;;5.68;2.60;;;;;;;23.06;91.15;101883.59;4976861;28;20030;-80
2022/07/04 05:04:50;;;;;;;3.42;2.33;;;;;;;23.20;90.61;101878.66;4980408;28;20042;-80
2022/07/04 05:07:19;;;;;;;4.90;2.25;;;;;;;23.41;89.87;101887.81;4987189;28;20065;-80
2022/07/04 05:09:47;;;;;;;5.95;2.65;;;;;;;23.64;87.49;101884.31;4988305;28;20047;-80
2022/07/04 05:12:16;;;;;;;4.70;2.55;;;;;;;23.84;86.52;101888.19;4959406;28;20046;-80
2022/07/04 05:14:47;;;;;;;3.38;2.35;;;;;;;23.72;85.06;101890.34;4997990;28;20043;-81
2022/07/04 05:17:15;;;;;;;6.43;2.70;;;;;;;23.55;84.90;101884.63;4974284;28;20030;-80
2022/07/04 05:19:44;;;;;;;4.53;2.55;;;;;;;23.70;84.96;101889.47;4983983;28;20050;-81
2022/07/04 05:22:12;;;;;;;3.72;2.50;;;;;;;24.00;84.41;101891.19;4986741;28;20054;-80
2022/07/04 05:24:41;;;;;;;3.17;2.58;;;;;;;24.33;82.89;101894.44;4989288;28;20042;-80
2022/07/04 05:27:10;;;;;;;6.50;3.07;;;;;;;24.64;81.32;101896.84;4958422;28;20055;-81
2022/07/04 05:29:40;;;;;;;3.42;2.55;;;;;;;24.86;80.52;101894.19;4992382;28;20305;-81
2022/07/04 05:32:08;;;;;;;5.43;2.75;;;;;;;24.97;78.83;101900.94;5014265;28;20255;-80
2022/07/04 05:34:37;;;;;;;2.97;2.65;;;;;;;24.87;78.29;101893.22;4989782;28;20043;-80
2022/07/04 05:37:05;;;;;;;5.55;3.70;;;;;;;24.50;77.75;101901.88;4996503;28;20046;-80
2022/07/04 05:39:34;;;;;;;5.65;3.92;;;;;;;24.47;77.99;101902.84;4989344;28;20046;-79
2022/07/04 05:42:03;;;;;;;4.85;2.70;;;;;;;24.72;77.76;101907.31;5002830;28;20546;-79
2022/07/04 05:44:31;;;;;;;5.88;2.45;;;;;;;25.03;76.40;101904.28;4950913;28;20050;-80
2022/07/04 05:47:00;;;;;;;4.75;2.40;;;;;;;25.34;75.80;101910.25;4992102;28;20494;-79
2022/07/04 05:49:28;;;;;;;3.75;2.63;;;;;;;25.58;74.96;101903.81;4982199;28;20065;-80
2022/07/04 05:51:58;;;;;;;;;;;;;;;25.46;70.98;101898.94;4953174;28;20053;-79
2022/07/04 05:54:26;;;;;;;6.53;3.00;;;;;;;25.20;74.91;101894.59;4956166;28;20162;-78
2022/07/04 05:56:55;;;;;;;5.20;2.58;;;;;;;24.71;74.67;101900.19;4981377;28;20524;-78
2022/07/04 05:59:23;;;;;;;3.05;2.13;;;;;;;24.16;75.35;101905.84;4969344;28;20163;-78
2022/07/04 06:01:52;;;;;;;4.25;2.40;;;;;;;23.62;75.82;101902.34;4978747;28;20042;-79
2022/07/04 06:04:20;;;;;;;7.57;3.55;;;;;;;23.03;77.53;101908.78;4975705;28;20247;-79
2022/07/04 06:06:49;;;;;;;5.00;2.95;;;;;;;22.54;79.17;101904.91;4960243;28;20041;-79
2022/07/04 06:09:17;;;;;;;6.35;2.70;;;;;;;22.11;81.34;101912.38;4980684;28;20248;-79
2022/07/04 06:11:50;;;;;;;3.67;2.63;;;;;;;21.75;83.48;101912.44;4978209;28;20058;-78
2022/07/04 06:14:18;;;;;;;3.90;2.63;;;;;;;21.45;84.62;101913.25;4977811;28;20653;-79
2022/07/04 06:16:47;;;;;;;6.15;2.90;;;;;;;21.23;87.03;101913.78;5003659;28;20031;-78
2022/07/04 06:19:15;;;;;;;4.82;2.90;;;;;;;21.22;87.50;101912.00;4952858;28;20276;-81
2022/07/04 06:21:44;;;;;;;4.43;2.60;;;;;;;21.25;88.93;101930.69;4962242;28;20054;-80
2022/07/04 06:24:12;;;;;;;4.32;2.72;;;;;;;21.12;89.51;101919.38;4972506;28;20272;-80
2022/07/04 06:26:41;;;;;;;8.05;3.70;;;;;;;20.96;90.10;101913.50;4971001;28;20045;-80
2022/07/04 06:29:10;;;;;;;5.85;2.80;;;;;;;20.72;90.33;101914.94;4976006;28;20660;-80
2022/07/04 06:31:38;;;;;;;3.88;2.80;;;;;;;20.50;92.04;101916.28;4963067;28;20050;-81
2022/07/04 06:36:55;;;;;;;8.43;2.70;;;;;;;20.38;94.80;101923.66;4976760;28;20058;-82
2022/07/04 06:39:23;;;;;;;5.57;2.40;;;;;;;20.45;95.25;101916.38;4991774;28;20038;-81
2022/07/04 06:41:52;;;;;;;4.00;2.95;;;;;;;20.44;95.74;101919.97;5000558;28;20408;-81
2022/07/04 06:44:22;;;;;;;;;;;;;;;20.52;100.00;101907.31;4980221;28;20031;-81
2022/07/04 06:46:51;;;;;;;4.53;2.40;;;;;;;20.58;95.81;101915.19;4990217;28;19933;-80
2022/07/04 06:49:20;;;;;;;6.90;3.10;;;;;;;20.54;96.01;101916.19;4982623;28;20495;-81
2022/07/04 06:51:48;;;;;;;4.93;2.50;;;;;;;20.45;95.65;101916.38;4987695;28;20065;-81
2022/07/04 06:54:17;;;;;;;6.03;2.67;;;;;;;20.40;97.37;101911.13;5011134;28;20050;-81
2022/07/04 06:56:45;;;;;;;5.72;2.92;;;;;;;20.44;97.62;101914.63;4966285;28;20396;-81
2022/07/04 06:59:14;;;;;;;4.53;2.35;;;;;;;20.45;96.93;101911.03;4961773;28;20045;-81
2022/07/04 07:01:42;;;;;;;11.43;2.42;;;;;;;20.47;97.10;101900.28;4982706;28;20054;-81
2022/07/04 07:04:11;;;;;;;9.52;2.67;;;;;;;20.42;97.26;101914.66;4980146;28;20057;-81
2022/07/04 07:06:40;;;;;;;3.95;2.15;;;;;;;20.41;97.42;101914.69;4973306;28;20064;-81
2022/07/04 07:09:08;;;;;;;11.30;3.05;;;;;;;20.40;97.46;101907.59;4977774;28;20125;-80
2022/07/04 07:11:38;;;;;;;7.38;2.92;;;;;;;20.38;97.91;101912.97;4975611;28;20046;-81
2022/07/04 07:14:06;;;;;;;10.52;3.00;;;;;;;20.30;98.09;101906.88;4972659;28;20068;-80
2022/07/04 07:16:34;;;;;;;7.07;2.45;;;;;;;20.31;99.15;101903.28;4985405;28;20088;-81
2022/07/04 07:19:03;;;;;;;4.72;2.22;;;;;;;20.37;99.94;101908.50;4962157;28;20065;-81
2022/07/04 07:21:32;;;;;;;6.85;2.13;;;;;;;20.41;98.70;101903.97;4994807;28;20050;-81
2022/07/04 07:24:00;;;;;;;7.40;2.10;;;;;;;20.44;98.83;101903.91;4990781;28;20046;-80
2022/07/04 07:26:29;;;;;;;5.88;2.55;;;;;;;20.47;98.77;101908.31;4979707;28;20034;-81
2022/07/04 07:28:57;;;;;;;4.72;2.42;;;;;;;20.48;99.50;101902.94;4956469;28;20038;-79
2022/07/04 07:31:27;;;;;;;6.45;2.30;;;;;;;20.57;99.48;101896.50;4976645;28;20060;-80
2022/07/04 07:33:55;;;;;;;9.38;2.78;;;;;;;20.61;99.02;101898.25;4958377;28;20054;-80
2022/07/04 07:36:24;;;;;;;4.63;2.20;;;;;;;20.49;97.44;101904.72;5003230;28;20053;-81
2022/07/04 07:38:53;;;;;;;4.22;1.80;;;;;;;20.35;97.45;101901.44;4974677;28;20264;-81
2022/07/04 07:41:22;;;;;;;5.87;2.17;;;;;;;20.37;98.48;101902.28;4981263;28;20054;-81
2022/07/04 07:43:50;;;;;;;8.55;2.00;;;;;;;20.43;97.78;101900.38;4970225;28;20292;-81
2022/07/04 07:46:18;;;;;;;8.50;2.20;;;;;;;20.36;97.66;101905.84;4979542;28;20050;-81
2022/07/04 07:48:47;;;;;;;8.07;2.40;;;;;;;20.24;97.26;101907.91;4950546;28;20379;-82
2022/07/04 07:51:16;;;;;;;7.40;2.20;;;;;;;20.15;98.36;101905.41;4971701;28;20404;-82
2022/07/04 07:53:45;;;;;;;4.05;2.15;;;;;;;20.11;99.01;101911.72;5007937;28;20046;-81
2022/07/04 07:56:33;;;;;;;5.45;1.85;;;;;;;20.08;98.50;101897.53;4960447;28;20077;-81
2022/07/04 07:59:02;;;;;;;6.10;2.10;;;;;;;20.00;98.36;101903.91;4986116;28;20049;-82
2022/07/04 08:01:31;;;;;;;7.03;2.13;;;;;;;19.86;99.22;101903.28;4987919;28;20250;-82
2022/07/04 08:06:50;;;;;;;6.20;1.83;;;;;;;19.59;99.16;101901.97;4988610;28;20411;-81
2022/07/04 08:09:39;;;;;;;5.40;2.03;;;;;;;19.51;99.70;101895.84;4978108;28;20487;-82
2022/07/04 08:12:08;;;;;;;3.42;2.15;;;;;;;19.42;100.00;101900.47;4984028;28;20045;-81
2022/07/04 08:14:40;;;;;;;5.32;2.30;;;;;;;19.38;100.00;101897.88;4991580;28;20034;-82
2022/07/04 08:17:10;;;;;;;5.65;2.08;;;;;;;19.30;100.00;101895.34;4987806;28;20506;-81
2022/07/04 08:19:39;;;;;;;;;;;;;;;19.14;100.00;101889.34;5002168;28;20053;-82
2022/07/04 08:22:10;;;;;;;10.13;2.83;;;;;;;19.07;100.00;101895.69;4957541;28;20271;-83
2022/07/04 08:24:44;;;;;;;6.13;2.28;;;;;;;19.05;100.00;101897.50;4978381;28;20053;-83
2022/07/04 08:27:13;;;;;;;5.53;2.33;;;;;;;18.99;100.00;101898.47;4980104;28;20052;-82
2022/07/04 08:29:43;;;;;;;6.75;2.38;;;;;;;18.88;100.00;101913.75;4961820;28;20302;-81
2022/07/04 08:32:12;;;;;;;6.97;2.65;;;;;;;18.78;100.00;101896.97;4961429;28;20523;-80
2022/07/04 08:34:42;;;;;;;5.00;2.53;;;;;;;18.73;100.00;101900.59;4961336;28;20530;-82
2022/07/04 08:37:11;;;;;;;5.75;2.85;;;;;;;18.64;100.00;101901.63;4959635;28;20594;-82
2022/07/04 08:39:39;;;;;;;5.82;2.50;;;;;;;18.54;100.00;101908.84;5019602;28;20042;-80
2022/07/04 08:42:19;;;;;;;7.68;3.00;;;;;;;18.47;100.00;101918.75;4976527;28;20053;-81
2022/07/04 08:44:50;;;;;;;8.50;2.95;;;;;;;18.37;100.00;101906.41;4967933;28;20046;-81
2022/07/04 08:47:22;;;;;;;6.18;2.53;;;;;;;18.19;100.00;101912.84;4976611;28;20350;-81
2022/07/04 08:49:57;;;;;;;3.85;2.38;;;;;;;18.08;100.00;101920.09;4974811;28;20042;-82
2022/07/04 08:52:59;;;;;;;4.95;2.60;;;;;;;17.99;100.00;101923.72;4954298;28;20046;-81
2022/07/04 08:58:31;;;;;;;9.57;3.45;;;;;;;18.08;100.00;101925.44;4969763;28;20050;-82
2022/07/04 09:01:14;;;;;;;10.73;3.88;;;;;;;18.23;100.00;101924.38;4984203;28;20054;-81
2022/07/04 09:03:45;;;;;;;4.68;3.65;;;;;;;18.43;100.00;101932.13;5013368;28;20050;-80
2022/07/04 09:06:14;;;;;;;10.35;3.30;;;;;;;18.62;100.00;101920.34;4946437;28;20419;-80
2022/07/04 09:08:42;;;;;;;6.75;3.10;;;;;;;18.81;100.00;101915.66;4999189;28;20447;-80
2022/07/04 09:11:12;;;;;;;7.78;3.35;;;;;;;19.11;100.00;101912.53;5010048;28;20516;-80
2022/07/04 09:13:41;;;;;;;5.63;3.15;;;;;;;19.35;100.00;101903.25;4998197;28;20046;-81
2022/07/04 09:16:09;;;;;;;5.50;2.28;;;;;;;19.49;100.00;101906.59;4968864;28;20057;-82
2022/07/04 09:18:37;;;;;;;3.83;2.30;;;;;;;19.48;100.00;101908.38;4983207;28;20058;-81
2022/07/04 09:21:09;;;;;;;5.28;1.98;;;;;;;19.46;100.00;101906.63;4960697;28;20055;-81
2022/07/04 09:23:42;;;;;;;3.70;1.92;;;;;;;19.35;100.00;101901.47;4978595;28;20054;-82
2022/07/04 09:26:20;;;;;;;3.63;2.13;;;;;;;19.29;100.00;101909.59;4983814;28;20428;-81
2022/07/04 09:28:57;;;;;;;4.80;1.67;;;;;;;19.23;100.00;101920.38;4976728;28;20042;-81
2022/07/04 09:31:28;;;;;;;5.25;1.67;;;;;;;19.16;100.00;101913.38;4970989;28;20340;-81
2022/07/04 09:34:03;;;;;;;;;;;;;;;19.05;100.00;101916.19;4982872;28;20059;-82
2022/07/04 09:36:35;;;;;;;2.47;1.60;;;;;;;19.02;100.00;101918.94;4948865;28;19937;-81
2022/07/04 09:39:15;;;;;;;2.65;1.50;;;;;;;19.06;100.00;101916.19;4987571;28;20050;-82
2022/07/04 09:41:50;;;;;;;2.88;1.50;;;;;;;19.19;100.00;101916.00;4989872;28;20058;-82
2022/07/04 09:44:19;;;;;;;6.95;1.23;;;;;;;19.28;100.00;101914.06;4974027;28;20261;-81
2022/07/04 09:46:47;;;;;;;1.90;1.20;;;;;;;19.30;98.23;101924.72;4980457;28;20038;-81
2022/07/04 09:49:16;;;;;;;2.17;1.00;;;;;;;19.26;96.41;101928.34;4970043;28;20042;-82
2022/07/04 09:51:47;;;;;;;4.05;1.10;;;;;;;19.37;96.68;101925.50;4977344;28;20050;-81
2022/07/04 09:54:22;;;;;;;2.38;1.20;;;;;;;19.58;96.35;101921.56;4972818;28;20058;-82
2022/07/04 09:56:55;;;;;;;1.15;1.00;;;;;;;19.70;93.58;101910.69;4979329;28;20057;-82
2022/07/04 09:59:27;;;;;;;2.50;1.10;;;;;;;19.77;92.84;101920.41;4964926;28;20042;-82
2022/07/04 10:02:11;;;;;;;1.27;1.17;;;;;;;19.92;91.78;101910.31;4980602;28;20069;-81
2022/07/04 10:04:51;;;;;;;2.90;1.23;;;;;;;20.15;92.10;101910.75;4984302;28;20065;-82
2022/07/04 10:07:35;;;;;;;2.90;1.30;;;;;;;20.35;93.10;101909.47;4946244;28;20756;-81
2022/07/04 10:10:23;;;;;;;1.95;0.80;;;;;;;20.31;87.17;101916.66;5003238;28;20046;-83
2022/07/04 10:12:53;;;;;;;2.10;1.05;;;;;;;20.24;88.87;101915.94;4986971;28;20065;-82
2022/07/04 10:15:22;;;;;;;2.10;1.10;;;;;;;20.34;89.02;101924.66;4967521;28;20386;-81
2022/07/04 10:17:51;;;;;;;3.13;1.40;;;;;;;20.41;88.03;101914.69;4956978;28;20050;-80
2022/07/04 10:20:20;;;;;;;1.55;0.93;;;;;;;20.50;85.91;101910.94;4961137;28;20164;-81
2022/07/04 10:22:48;;;;;;;2.80;0.90;;;;;;;20.67;86.03;101907.94;4977516;28;20049;-83
2022/07/04 10:25:17;;;;;;;2.00;1.02;;;;;;;20.77;83.13;101906.78;4973832;28;20042;-81
2022/07/04 10:27:48;;;;;;;1.30;0.90;;;;;;;20.91;83.41;101911.88;4988393;28;20050;-82
2022/07/04 10:30:23;;;;;;;2.28;0.88;;;;;;;21.05;79.08;101911.53;4979162;28;20212;-81
2022/07/04 10:32:54;;;;;;;4.07;1.25;;;;;;;21.13;79.93;101915.75;4976891;28;20038;-80
2022/07/04 10:35:55;;;;;;;1.02;0.85;;;;;;;21.05;76.82;101911.53;4988371;28;20058;-82
2022/07/04 10:38:28;;;;;;;1.67;1.00;;;;;;;20.93;80.35;101921.63;4980894;28;20053;-81
2022/07/04 10:41:03;;;;;;;1.63;1.10;;;;;;;20.83;81.13;101910.22;4950663;28;20042;-81
2022/07/04 10:46:12;;;;;;;1.40;0.90;;;;;;;20.71;82.43;101921.22;4976327;28;20050;-81
2022/07/04 10:49:04;;;;;;;2.30;1.20;;;;;;;20.63;81.56;101921.38;4981961;28;20508;-81
2022/07/04 10:51:45;;;;;;;2.25;1.00;;;;;;;20.60;83.49;101926.81;4988046;28;20038;-80
2022/07/04 10:54:22;;;;;;;3.78;1.13;;;;;;;20.62;82.62;101930.34;4978387;28;20546;-81
2022/07/04 10:56:55;;;;;;;3.30;1.05;;;;;;;20.76;83.19;101921.13;4986116;28;20287;-82
2022/07/04 10:59:29;;;;;;;2.33;1.00;;;;;;;21.02;82.30;101913.38;4987408;28;20043;-81
2022/07/04 11:02:22;;;;;;;2.70;1.20;;;;;;;21.23;79.75;101911.09;4985567;28;20050;-81
2022/07/04 11:05:02;;;;;;;3.65;1.23;;;;;;;21.40;80.81;101908.88;4979384;28;20046;-80
2022/07/04 11:07:37;;;;;;;2.55;1.20;;;;;;;21.55;79.67;101902.28;5000278;28;20054;-80
2022/07/04 11:10:11;;;;;;;2.22;1.27;;;;;;;21.73;81.20;101911.63;4970620;28;20516;-81
2022/07/04 11:12:55;;;;;;;3.55;1.13;;;;;;;21.92;80.65;101901.25;4957989;28;20432;-80
2022/07/04 11:15:24;;;;;;;2.58;1.10;;;;;;;22.04;78.61;101894.69;5015927;28;20053;-79
2022/07/04 11:18:16;;;;;;;1.65;1.10;;;;;;;22.14;77.57;101889.94;4983488;28;20538;-81
2022/07/04 11:20:47;;;;;;;1.98;1.13;;;;;;;22.20;76.82;101887.94;4974292;28;20034;-81
2022/07/04 11:23:21;;;;;;;1.95;1.10;;;;;;;22.24;76.03;101902.16;4980903;28;20038;-80
2022/07/04 11:25:52;;;;;;;1.77;1.25;;;;;;;22.07;75.16;101893.72;4936454;28;20042;-82
2022/07/04 11:28:22;;;;;;;2.03;1.02;;;;;;;21.84;76.03;101894.38;4988072;28;20411;-82
2022/07/04 11:31:11;;;;;;;8.38;1.08;;;;;;;21.72;76.22;101900.91;4986204;28;20069;-81
2022/07/04 11:33:41;;;;;;;2.53;1.35;;;;;;;21.78;76.83;101895.41;4979736;28;20645;-81
2022/07/04 11:36:17;;;;;;;3.15;1.10;;;;;;;21.92;76.92;101897.72;4978585;28;20034;-81
2022/07/04 11:38:53;;;;;;;4.07;1.10;;;;;;;21.99;73.39;101893.94;4968998;28;20264;-81
2022/07/04 11:47:36;;;;;;;1.93;1.10;;;;;;;21.94;71.88;101886.00;4987069;28;20042;-81
2022/07/04 11:50:16;;;;;;;3.00;1.45;;;;;;;21.78;72.47;101898.09;4981977;28;20030;-81
2022/07/04 11:52:48;;;;;;;4.13;1.20;;;;;;;21.58;73.31;101893.25;4971270;28;20598;-80
2022/07/04 11:55:36;;;;;;;1.35;1.20;;;;;;;21.44;72.46;101882.91;4976165;28;20101;-81
2022/07/04 11:58:04;;;;;;;1.02;0.90;;;;;;;21.43;71.93;101876.59;4959752;28;20054;-80
2022/07/04 12:00:34;;;;;;;4.25;1.63;;;;;;;21.48;72.48;101878.34;4986765;28;20046;-80
2022/07/04 12:03:04;;;;;;;;;;;;;;;21.72;70.02;101879.47;5014927;28;20061;-81